createdAt,value
2022-07-29T00:02:42.614Z,1.52
2022-07-29T00:06:45.429Z,1.45
2022-07-29T00:10:49.704Z,1.17
2022-07-29T00:14:52.702Z,1.23
2022-07-29T00:18:55.455Z,1.48
2022-07-29T00:22:58.219Z,1.23
2022-07-29T00:27:02.355Z,1.55
2022-07-29T00:31:05.219Z,1.55
2022-07-29T00:35:26.739Z,1.13
2022-07-29T00:39:29.499Z,1.33
2022-07-29T00:43:33.630Z,1.52
2022-07-29T00:47:36.384Z,1.20
2022-07-29T00:51:40.564Z,1.25
2022-07-29T00:55:43.330Z,1.48
2022-07-29T00:59:47.481Z,0.68
2022-07-29T01:03:50.263Z,1.20
2022-07-29T01:07:55.922Z,1.58
2022-07-29T01:11:59.772Z,0.95
2022-07-29T01:16:09.730Z,1.10
2022-07-29T01:20:17.262Z,0.98
2022-07-29T01:24:47.914Z,1.35
2022-07-29T01:29:05.334Z,1.27
2022-07-29T01:33:35.674Z,1.02
2022-07-29T01:37:47.212Z,1.20
2022-07-29T01:41:52.908Z,1.23
2022-07-29T01:46:03.076Z,1.10
2022-07-29T01:50:10.727Z,0.98
2022-07-29T01:54:20.483Z,0.90
2022-07-29T01:58:25.001Z,0.98
2022-07-29T02:02:31.312Z,1.15
2022-07-29T02:06:36.891Z,1.02
2022-07-29T02:10:42.288Z,0.80
2022-07-29T02:14:49.550Z,1.02
2022-07-29T02:18:57.667Z,1.20
2022-07-29T02:23:01.474Z,1.20
2022-07-29T02:27:05.151Z,0.95
2022-07-29T02:31:09.444Z,1.08
2022-07-29T02:35:15.992Z,0.70
2022-07-29T02:39:19.712Z,1.25
2022-07-29T02:43:23.438Z,1.00
2022-07-29T02:47:31.534Z,0.90
2022-07-29T02:51:51.247Z,1.10
2022-07-29T02:55:58.730Z,0.80
2022-07-29T03:00:05.826Z,1.00
2022-07-29T03:04:11.054Z,1.25
2022-07-29T03:08:18.039Z,0.88
2022-07-29T03:12:21.442Z,0.80
2022-07-29T03:16:24.793Z,1.50
2022-07-29T03:20:29.181Z,1.40
2022-07-29T03:24:36.156Z,1.17
2022-07-29T03:28:38.935Z,1.15
2022-07-29T03:32:43.091Z,0.90
2022-07-29T03:36:48.100Z,1.10
2022-07-29T03:40:56.227Z,1.08
2022-07-29T03:45:00.381Z,1.42
2022-07-29T03:49:06.070Z,1.75
2022-07-29T03:53:09.868Z,2.22
2022-07-29T03:57:15.031Z,1.30
2022-07-29T04:01:19.139Z,1.20
2022-07-29T04:05:22.148Z,0.77
2022-07-29T04:09:25.017Z,0.73
2022-07-29T04:13:29.250Z,0.60
2022-07-29T04:17:32.134Z,0.77
2022-07-29T04:21:39.183Z,0.90
2022-07-29T04:25:42.903Z,0.95
2022-07-29T04:29:56.820Z,0.80
2022-07-29T04:34:00.349Z,0.85
2022-07-29T04:38:03.794Z,0.90
2022-07-29T04:42:06.995Z,0.90
2022-07-29T04:46:12.757Z,1.00
2022-07-29T04:50:15.543Z,0.95
2022-07-29T04:54:18.656Z,0.90
2022-07-29T04:58:24.029Z,1.02
2022-07-29T05:02:28.189Z,0.80
2022-07-29T05:06:31.018Z,0.73
2022-07-29T05:10:34.958Z,1.05
2022-07-29T05:14:37.709Z,0.80
2022-07-29T05:18:41.845Z,1.10
2022-07-29T05:22:44.591Z,0.80
2022-07-29T05:26:47.326Z,0.88
2022-07-29T05:30:50.473Z,0.77
2022-07-29T05:34:55.060Z,0.95
2022-07-29T05:38:58.550Z,0.60
2022-07-29T05:43:01.295Z,0.90
2022-07-29T05:47:04.063Z,0.55
2022-07-29T05:51:08.239Z,0.60
2022-07-29T05:55:12.123Z,0.80
2022-07-29T05:59:18.360Z,0.70
2022-07-29T06:03:21.223Z,0.90
2022-07-29T06:07:25.310Z,0.47
2022-07-29T06:11:28.118Z,0.93
2022-07-29T06:15:30.906Z,0.70
2022-07-29T06:19:36.399Z,0.90
2022-07-29T06:23:41.187Z,0.88
2022-07-29T06:27:43.985Z,1.05
2022-07-29T06:31:46.858Z,0.90
2022-07-29T06:35:55.024Z,0.70
2022-07-29T06:40:13.317Z,0.80
2022-07-29T06:44:16.574Z,0.73
2022-07-29T06:48:19.692Z,0.80
2022-07-29T06:52:22.433Z,0.80
2022-07-29T06:56:27.024Z,0.80
2022-07-29T07:00:29.923Z,0.73
2022-07-29T07:04:32.981Z,0.70
2022-07-29T07:08:35.788Z,0.70
2022-07-29T07:12:39.964Z,0.65
2022-07-29T07:16:42.820Z,0.98
2022-07-29T07:20:46.421Z,0.50
2022-07-29T07:24:49.155Z,0.90
2022-07-29T07:28:53.301Z,0.65
2022-07-29T07:32:57.147Z,0.50
2022-07-29T07:36:59.944Z,0.90
2022-07-29T07:41:03.123Z,0.73
2022-07-29T07:45:16.532Z,0.93
2022-07-29T07:49:19.716Z,0.50
2022-07-29T07:53:22.794Z,0.93
2022-07-29T07:57:25.602Z,0.77
2022-07-29T08:01:29.810Z,0.63
2022-07-29T08:05:51.959Z,0.70
2022-07-29T08:09:54.719Z,0.80
2022-07-29T08:13:57.581Z,0.85
2022-07-29T08:18:06.533Z,1.00
2022-07-29T08:22:11.285Z,0.70
2022-07-29T08:26:15.066Z,1.00
2022-07-29T08:30:17.847Z,0.70
2022-07-29T08:34:27.028Z,1.15
2022-07-29T08:38:30.866Z,0.82
2022-07-29T08:42:33.718Z,0.70
2022-07-29T08:46:39.903Z,0.98
2022-07-29T08:50:46.706Z,0.75
2022-07-29T08:54:50.754Z,0.95
2022-07-29T08:58:53.880Z,0.90
2022-07-29T09:02:59.733Z,1.08
2022-07-29T09:07:06.727Z,1.00
2022-07-29T09:11:09.540Z,1.33
2022-07-29T09:15:12.390Z,1.00
2022-07-29T09:19:25.968Z,0.98
2022-07-29T09:23:30.080Z,1.48
2022-07-29T09:27:33.894Z,1.38
2022-07-29T09:31:40.107Z,1.30
2022-07-29T09:35:43.031Z,1.02
2022-07-29T09:40:00.940Z,0.90
2022-07-29T09:44:03.992Z,1.45
2022-07-29T09:48:15.867Z,1.08
2022-07-29T09:52:18.660Z,1.10
2022-07-29T09:56:39.827Z,1.02
2022-07-29T10:00:44.592Z,1.15
2022-07-29T10:04:47.507Z,1.08
2022-07-29T10:08:51.066Z,1.00
2022-07-29T10:12:58.467Z,1.48
2022-07-29T10:17:05.117Z,1.27
2022-07-29T10:21:08.586Z,1.30
2022-07-29T10:25:12.461Z,1.45
2022-07-29T10:29:16.627Z,1.50
2022-07-29T10:33:49.079Z,1.50
2022-07-29T10:38:12.440Z,1.50
2022-07-29T10:42:33.931Z,1.83
2022-07-29T10:46:41.313Z,1.30
2022-07-29T10:50:58.185Z,1.75
2022-07-29T10:55:03.015Z,1.40
2022-07-29T10:59:25.075Z,0.95
2022-07-29T11:03:52.444Z,1.13
2022-07-29T11:08:28.162Z,1.20
2022-07-29T11:12:59.159Z,1.10
2022-07-29T11:17:06.059Z,1.17
2022-07-29T11:21:53.816Z,1.33
2022-07-29T11:26:23.232Z,1.60
2022-07-29T11:30:49.704Z,1.35
2022-07-29T11:35:17.370Z,1.33
2022-07-29T11:39:36.245Z,2.28
2022-07-29T11:43:48.379Z,1.77
2022-07-29T11:52:22.245Z,1.20
2022-07-29T11:56:32.755Z,1.10
2022-07-29T12:00:39.077Z,1.50
2022-07-29T12:04:51.216Z,1.35
2022-07-29T12:08:55.199Z,1.70
2022-07-29T12:12:59.324Z,1.20
2022-07-29T12:17:02.350Z,1.15
2022-07-29T12:21:05.454Z,1.50
2022-07-29T12:25:32.001Z,1.13
2022-07-29T12:29:35.776Z,1.13
2022-07-29T12:33:38.963Z,1.33
2022-07-29T12:37:43.634Z,1.80
2022-07-29T12:41:46.969Z,1.77
2022-07-29T12:45:52.431Z,1.30
2022-07-29T12:50:10.509Z,1.45
2022-07-29T12:54:15.110Z,1.35
2022-07-29T12:58:29.606Z,1.38
2022-07-29T13:02:33.991Z,1.23
2022-07-29T13:06:39.935Z,1.73
2022-07-29T13:10:44.515Z,1.50
2022-07-29T13:14:48.953Z,1.65
2022-07-29T13:19:06.472Z,1.52
2022-07-29T13:23:09.248Z,1.10
2022-07-29T13:27:12.017Z,1.10
2022-07-29T13:31:14.902Z,0.95
2022-07-29T13:35:19.728Z,1.45
2022-07-29T13:39:22.503Z,1.65
2022-07-29T13:43:25.288Z,1.33
2022-07-29T13:47:32.740Z,1.20
2022-07-29T13:51:37.251Z,1.15
2022-07-29T13:55:40.023Z,1.13
2022-07-29T13:59:44.167Z,0.90
2022-07-29T14:03:46.966Z,1.20
2022-07-29T14:07:51.169Z,1.33
2022-07-29T14:11:54.188Z,1.20
2022-07-29T14:15:57.024Z,1.23
2022-07-29T14:19:59.804Z,1.27
2022-07-29T14:24:03.972Z,1.15
2022-07-29T14:28:19.919Z,1.02
2022-07-29T14:32:22.733Z,1.10
2022-07-29T14:36:25.718Z,1.45
2022-07-29T14:40:30.119Z,1.45
2022-07-29T14:44:32.951Z,1.10
2022-07-29T14:48:35.981Z,1.20
2022-07-29T14:52:38.815Z,1.58
2022-07-29T14:56:46.881Z,1.30
2022-07-29T15:00:50.086Z,1.10
2022-07-29T15:04:52.910Z,1.70
2022-07-29T15:08:55.851Z,1.60
2022-07-29T15:12:59.976Z,1.20
2022-07-29T15:17:03.929Z,1.75
2022-07-29T15:21:08.505Z,1.45
2022-07-29T15:25:11.685Z,1.35
2022-07-29T15:29:16.514Z,1.63
2022-07-29T15:33:19.472Z,1.45
2022-07-29T15:37:22.214Z,1.70
2022-07-29T15:41:25.036Z,1.45
2022-07-29T15:45:32.033Z,1.60
2022-07-29T15:49:47.060Z,1.48
2022-07-29T15:53:53.718Z,3.58
2022-07-29T15:58:00.472Z,1.70
2022-07-29T16:02:05.293Z,1.55
2022-07-29T16:06:08.078Z,1.85
2022-07-29T16:10:10.843Z,2.15
2022-07-29T16:14:13.931Z,1.40
2022-07-29T16:18:18.056Z,2.30
2022-07-29T16:22:20.818Z,1.98
2022-07-29T16:26:23.667Z,1.73
2022-07-29T16:30:26.435Z,1.63
2022-07-29T16:34:31.614Z,1.80
2022-07-29T16:38:34.428Z,1.77
2022-07-29T16:42:46.754Z,2.47
2022-07-29T16:46:50.103Z,2.60
2022-07-29T16:50:54.237Z,2.50
2022-07-29T16:54:56.965Z,2.40
2022-07-29T16:59:00.735Z,2.25
2022-07-29T17:03:03.494Z,1.80
2022-07-29T17:07:07.655Z,1.58
2022-07-29T17:11:10.401Z,1.55
2022-07-29T17:15:15.811Z,1.40
2022-07-29T17:19:18.583Z,1.45
2022-07-29T17:23:25.710Z,1.25
2022-07-29T17:27:28.445Z,1.88
2022-07-29T17:31:31.283Z,1.05
2022-07-29T17:35:51.362Z,0.65
2022-07-29T17:40:00.211Z,1.00
2022-07-29T17:44:03.230Z,0.93
2022-07-29T17:48:06.778Z,0.90
2022-07-29T17:52:09.570Z,0.80
2022-07-29T17:56:14.022Z,1.13
2022-07-29T18:00:17.176Z,0.65
2022-07-29T18:04:23.217Z,0.68
2022-07-29T18:08:25.996Z,0.65
2022-07-29T18:12:30.143Z,0.63
2022-07-29T18:16:33.013Z,1.00
2022-07-29T18:20:35.869Z,0.63
2022-07-29T18:24:38.596Z,0.95
2022-07-29T18:28:42.808Z,0.98
2022-07-29T18:33:05.002Z,1.00
2022-07-29T18:37:08.467Z,0.60
2022-07-29T18:41:11.384Z,0.82
2022-07-29T18:45:19.510Z,0.82
2022-07-29T18:49:23.312Z,0.82
2022-07-29T18:53:26.139Z,0.70
2022-07-29T18:57:55.770Z,2.78
2022-07-29T19:01:53.517Z,1.00
2022-07-29T19:05:56.340Z,1.17
2022-07-29T19:09:59.091Z,0.90
2022-07-29T19:14:01.859Z,0.98
2022-07-29T19:18:07.049Z,1.65
2022-07-29T19:22:10.132Z,1.60
2022-07-29T19:26:13.083Z,1.52
2022-07-29T19:30:23.705Z,1.58
2022-07-29T19:34:27.859Z,1.40
2022-07-29T19:38:30.684Z,1.48
2022-07-29T19:42:33.483Z,1.67
2022-07-29T19:46:36.290Z,1.90
2022-07-29T19:50:40.442Z,1.85
2022-07-29T19:54:46.027Z,1.70
2022-07-29T19:58:48.812Z,1.65
2022-07-29T20:02:51.887Z,1.75
2022-07-29T20:07:01.073Z,1.40
2022-07-29T20:11:04.630Z,2.10
2022-07-29T20:15:09.270Z,2.17
2022-07-29T20:19:18.976Z,1.73
2022-07-29T20:23:23.307Z,1.77
2022-07-29T20:27:26.094Z,2.38
2022-07-29T20:31:30.500Z,1.52
2022-07-29T20:35:33.406Z,2.45
2022-07-29T20:39:37.561Z,2.13
2022-07-29T20:43:40.891Z,2.40
2022-07-29T20:47:43.755Z,2.30
2022-07-29T20:51:46.536Z,2.03
2022-07-29T20:55:51.270Z,2.63
2022-07-29T20:59:54.107Z,2.47
2022-07-29T21:03:57.024Z,2.38
2022-07-29T21:08:00.330Z,2.42
2022-07-29T21:12:04.847Z,2.60
2022-07-29T21:16:14.860Z,2.40
2022-07-29T21:24:21.552Z,2.22
2022-07-29T21:28:29.459Z,2.63
2022-07-29T21:32:32.309Z,2.90
2022-07-29T21:36:50.391Z,2.38
2022-07-29T21:40:53.834Z,2.70
2022-07-29T21:44:57.967Z,2.47
2022-07-29T21:49:00.778Z,2.50
2022-07-29T21:53:03.595Z,2.40
2022-07-29T21:57:07.594Z,2.70
2022-07-29T22:01:12.091Z,2.17
2022-07-29T22:05:15.517Z,2.58
2022-07-29T22:09:18.322Z,2.10
2022-07-29T22:13:21.398Z,2.40
2022-07-29T22:17:25.523Z,3.35
2022-07-29T22:21:28.387Z,3.22
2022-07-29T22:25:31.154Z,2.65
2022-07-29T22:29:33.919Z,2.83
2022-07-29T22:33:38.897Z,2.55
2022-07-29T22:37:41.750Z,2.78
2022-07-29T22:41:44.542Z,3.22
2022-07-29T22:45:47.497Z,3.47
2022-07-29T22:49:51.658Z,2.83
2022-07-29T22:53:54.634Z,2.67
2022-07-29T22:57:57.384Z,2.53
2022-07-29T23:02:00.348Z,2.95
2022-07-29T23:06:04.719Z,2.97
2022-07-29T23:10:08.532Z,2.60
2022-07-29T23:14:11.335Z,2.95
2022-07-29T23:18:14.102Z,2.78
2022-07-29T23:22:18.448Z,2.50
2022-07-29T23:26:21.429Z,2.28
2022-07-29T23:30:24.345Z,2.08
2022-07-29T23:34:27.197Z,2.00
2022-07-29T23:38:31.376Z,2.03
2022-07-29T23:42:34.188Z,2.03
2022-07-29T23:46:37.010Z,2.00
2022-07-29T23:50:39.779Z,1.77
2022-07-29T23:54:43.998Z,2.08
2022-07-29T23:58:46.758Z,2.13
